Time;durP1;ratioP1;P1;durP2;ratioP2;P2;SDS_P1;SDS_P2;PMS_P1;PMS_P2;Temp;Humidity;BMP_temperature;BMP_pressure;BME280_temperature;BME280_humidity;BME280_pressure;Samples;Min_cycle;Max_cycle;Signal;HPM_P1;HPM_P2
2022/04/16 00:02:22;;;;;;;12.13;3.08;;;;;;;14.16;47.77;100983.22;5079109;28;20052;-73
2022/04/16 00:05:07;;;;;;;5.60;2.35;;;;;;;13.92;48.37;100981.91;5073476;28;20044;-72
2022/04/16 00:08:07;;;;;;;7.32;3.20;;;;;;;13.94;48.36;100982.41;5072899;28;20067;-71
2022/04/16 00:10:53;;;;;;;6.40;2.45;;;;;;;14.01;48.13;100981.88;5062239;28;20064;-72
2022/04/16 00:13:37;;;;;;;4.82;2.50;;;;;;;14.17;47.93;100982.09;5073225;28;20051;-71
2022/04/16 00:16:22;;;;;;;3.80;1.83;;;;;;;14.25;47.37;100982.03;5073268;28;20052;-72
2022/04/16 00:19:11;;;;;;;5.43;2.03;;;;;;;14.28;47.59;100972.34;5078907;28;20051;-72
2022/04/16 00:21:57;;;;;;;6.65;2.70;;;;;;;14.14;47.86;100969.88;5073094;28;20431;-71
2022/04/16 00:24:42;;;;;;;4.10;2.47;;;;;;;14.27;47.20;100968.03;5074530;28;20052;-72
2022/04/16 00:27:27;;;;;;;5.60;2.47;;;;;;;14.07;47.57;100966.88;5053015;28;20051;-72
2022/04/16 00:30:12;;;;;;;9.23;2.03;;;;;;;14.11;47.57;100962.34;5052784;28;20044;-72
2022/04/16 00:32:57;;;;;;;;;;;;;;;13.84;48.22;100962.84;5053315;28;20047;-72
2022/04/16 00:35:42;;;;;;;4.30;2.38;;;;;;;13.91;48.35;100957.66;5052786;28;19912;-71
2022/04/16 00:38:27;;;;;;;8.02;2.78;;;;;;;13.84;48.38;100957.38;5052673;28;20044;-73
2022/04/16 00:41:12;;;;;;;3.15;2.28;;;;;;;13.66;48.77;100952.00;5052643;28;20412;-71
2022/04/16 00:43:57;;;;;;;5.72;2.47;;;;;;;13.31;50.03;100949.78;5052498;28;20048;-72
2022/04/16 00:46:41;;;;;;;5.20;2.15;;;;;;;13.23;50.13;100954.94;5052714;28;20071;-71
2022/04/16 00:49:26;;;;;;;;;;;;;;;13.18;49.88;100951.59;5054605;28;20048;-71
2022/04/16 00:52:11;;;;;;;5.93;3.05;;;;;;;13.40;49.24;100954.09;5058373;28;19912;-72
2022/04/16 00:54:56;;;;;;;7.50;2.88;;;;;;;13.45;48.89;100947.63;5052467;28;20044;-70
2022/04/16 00:57:42;;;;;;;8.45;2.08;;;;;;;13.49;48.88;100956.78;5052567;28;20052;-73
2022/04/16 01:00:27;;;;;;;14.98;3.10;;;;;;;13.24;49.91;100951.09;5052254;28;20052;-71
2022/04/16 01:03:12;;;;;;;14.45;2.92;;;;;;;13.21;50.40;100943.53;5052404;28;20040;-73
2022/04/16 01:05:58;;;;;;;7.90;1.95;;;;;;;13.33;49.08;100937.38;5052378;28;20056;-72
2022/04/16 01:08:44;;;;;;;8.57;3.15;;;;;;;13.37;48.57;100938.34;5052399;28;20404;-72
2022/04/16 01:11:32;;;;;;;10.88;2.60;;;;;;;13.28;48.83;100924.72;5052101;28;20060;-72
2022/04/16 01:14:19;;;;;;;12.43;3.00;;;;;;;13.24;48.95;100929.25;5052180;28;20044;-72
2022/04/16 01:17:04;;;;;;;6.25;2.45;;;;;;;13.08;48.97;100932.81;5052182;28;20048;-72
2022/04/16 01:19:49;;;;;;;5.03;2.40;;;;;;;13.17;48.24;100930.88;5051988;28;20048;-70
2022/04/16 01:22:34;;;;;;;6.90;1.70;;;;;;;13.08;48.58;100921.88;5052134;28;20499;-70
2022/04/16 01:25:19;;;;;;;4.88;2.03;;;;;;;12.90;48.63;100923.84;5052285;28;20052;-70
2022/04/16 01:28:05;;;;;;;6.03;2.45;;;;;;;12.86;48.44;100922.91;5052015;28;20131;-70
2022/04/16 01:30:50;;;;;;;7.82;2.20;;;;;;;12.88;49.16;100914.41;5051748;28;20051;-72
2022/04/16 01:33:35;;;;;;;6.97;1.90;;;;;;;12.81;49.58;100926.59;5051994;28;20052;-71
2022/04/16 01:36:20;;;;;;;;;;;;;;;12.87;49.39;100913.59;5051313;28;20055;-71
2022/04/16 01:39:04;;;;;;;3.15;2.08;;;;;;;13.08;48.68;100913.69;5067280;28;19912;-72
2022/04/16 01:41:49;;;;;;;4.25;1.80;;;;;;;12.98;48.57;100905.84;5071907;28;20067;-71
2022/04/16 01:44:34;;;;;;;5.28;1.52;;;;;;;12.80;48.66;100914.09;5071769;28;20040;-72
2022/04/16 01:47:19;;;;;;;6.82;2.40;;;;;;;12.72;48.98;100905.94;5072069;28;20518;-72
2022/04/16 01:50:07;;;;;;;3.33;1.92;;;;;;;12.85;49.64;100905.72;5093071;23;20855;-82
2022/04/16 01:52:52;;;;;;;5.20;2.40;;;;;;;13.01;48.75;100902.47;5071138;28;20048;-82
2022/04/16 01:55:36;;;;;;;;;;;;;;;13.00;49.18;100895.44;5073335;28;20048;-83
2022/04/16 01:58:21;;;;;;;5.30;2.47;;;;;;;12.91;49.03;100902.81;5079530;28;19912;-82
2022/04/16 02:01:05;;;;;;;4.45;2.70;;;;;;;12.93;49.36;100897.84;5076708;28;20059;-82
2022/04/16 02:03:50;;;;;;;;;;;;;;;12.81;49.41;100901.25;5079303;28;20051;-82
2022/04/16 02:06:35;;;;;;;3.90;2.20;;;;;;;12.82;48.93;100900.94;5078011;28;19912;-82
2022/04/16 02:09:20;;;;;;;4.03;2.22;;;;;;;12.74;49.37;100904.50;5081786;28;20039;-82
2022/04/16 02:12:04;;;;;;;5.28;2.67;;;;;;;12.85;49.67;100899.47;5081284;28;20052;-82
2022/04/16 02:14:49;;;;;;;;;;;;;;;12.85;49.29;100902.19;5079057;28;20063;-82
2022/04/16 02:17:34;;;;;;;8.95;2.50;;;;;;;12.93;49.39;100892.38;5075590;28;19917;-82
2022/04/16 02:20:19;;;;;;;4.68;2.70;;;;;;;12.91;49.88;100894.63;5064135;28;20052;-82
2022/04/16 02:23:04;;;;;;;3.83;1.77;;;;;;;12.74;50.37;100884.59;5073392;28;20048;-82
2022/04/16 02:25:50;;;;;;;;;;;;;;;12.69;51.46;100882.03;5067042;28;20413;-82
2022/04/16 02:28:35;;;;;;;4.57;2.63;;;;;;;12.66;51.38;100891.66;5071664;28;19912;-81
2022/04/16 02:31:20;;;;;;;7.07;3.70;;;;;;;12.64;51.83;100896.66;5075637;28;20052;-81
2022/04/16 02:34:07;;;;;;;5.25;2.80;;;;;;;12.73;51.46;100886.50;5077813;28;20067;-81
2022/04/16 02:36:52;;;;;;;8.23;3.15;;;;;;;12.52;51.42;100891.03;5073550;28;20091;-81
2022/04/16 02:39:36;;;;;;;10.82;3.50;;;;;;;12.43;51.45;100890.25;5074964;28;20075;-82
2022/04/16 02:42:21;;;;;;;9.43;3.20;;;;;;;12.54;51.08;100886.09;5067554;28;20048;-82
2022/04/16 02:48:11;;;;;;;5.75;3.78;;;;;;;12.15;51.40;100880.81;5078884;28;20067;-83
2022/04/16 02:50:56;;;;;;;3.28;2.58;;;;;;;12.21;51.86;100883.06;5077479;28;20048;-82
2022/04/16 02:53:41;;;;;;;5.55;3.25;;;;;;;12.24;51.73;100876.94;5074408;28;20044;-82
2022/04/16 02:56:26;;;;;;;8.32;3.42;;;;;;;12.12;53.11;100870.56;5079254;28;20060;-81
2022/04/16 02:59:11;;;;;;;5.05;3.08;;;;;;;12.14;53.09;100880.00;5079048;28;20077;-82
2022/04/16 03:01:55;;;;;;;5.23;3.87;;;;;;;12.17;53.16;100873.94;5079417;28;20055;-81
2022/04/16 03:04:40;;;;;;;7.35;4.80;;;;;;;12.00;53.92;100863.81;5078608;28;20298;-82
2022/04/16 03:07:25;;;;;;;10.18;4.40;;;;;;;12.07;53.51;100870.72;5082879;28;20051;-82
2022/04/16 03:10:10;;;;;;;9.93;4.15;;;;;;;12.25;53.23;100870.38;5078960;28;20051;-82
2022/04/16 03:12:55;;;;;;;13.13;4.80;;;;;;;12.33;53.30;100857.88;5079105;28;20051;-81
2022/04/16 03:18:44;;;;;;;12.40;5.07;;;;;;;12.18;54.00;100863.81;5062293;28;20227;-83
2022/04/16 03:21:28;;;;;;;8.35;4.40;;;;;;;12.18;54.41;100872.00;5061501;28;20071;-83
2022/04/16 03:24:13;;;;;;;9.57;4.40;;;;;;;12.24;53.95;100868.00;5084217;28;20071;-82
2022/04/16 03:26:58;;;;;;;;;;;;;;;12.26;53.87;100872.00;5082879;28;20051;-82
2022/04/16 03:29:42;;;;;;;6.45;4.30;;;;;;;12.19;53.85;100865.44;5081450;28;19931;-82
2022/04/16 03:32:27;;;;;;;;;;;;;;;12.28;53.66;100858.03;5082025;28;20051;-83
2022/04/16 03:35:12;;;;;;;8.80;5.22;;;;;;;12.51;53.00;100853.19;5084788;28;19912;-82
2022/04/16 03:37:57;;;;;;;13.23;3.72;;;;;;;12.44;53.11;100861.88;5084424;28;20123;-82
2022/04/16 03:40:42;;;;;;;4.97;3.78;;;;;;;12.46;53.13;100865.06;5084577;28;20052;-82
2022/04/16 03:43:29;;;;;;;;;;;;;;;12.46;53.31;100865.06;5086597;28;20051;-82
2022/04/16 03:46:14;;;;;;;7.13;4.13;;;;;;;12.37;53.57;100858.81;5082999;28;19916;-82
2022/04/16 03:49:01;;;;;;;6.30;3.67;;;;;;;12.49;53.53;100853.53;5086412;28;20043;-81
2022/04/16 03:51:46;;;;;;;10.95;5.40;;;;;;;12.35;53.65;100852.88;5084245;28;20051;-82
2022/04/16 04:00:41;;;;;;;14.48;6.32;;;;;;;11.94;56.71;100856.13;5073024;28;20055;-82
2022/04/16 04:03:26;;;;;;;9.23;5.90;;;;;;;12.20;56.49;100873.28;5064176;28;20052;-82
2022/04/16 04:06:11;;;;;;;7.63;4.40;;;;;;;12.17;57.62;100867.66;5061723;28;20047;-82
2022/04/16 04:08:55;;;;;;;9.13;4.25;;;;;;;12.25;57.71;100875.84;5066170;28;20051;-81
2022/04/16 04:11:40;;;;;;;14.38;5.68;;;;;;;12.19;57.80;100871.66;5083410;28;20052;-83
2022/04/16 04:14:25;;;;;;;;;;;;;;;12.07;58.42;100873.44;5085480;28;20051;-82
2022/04/16 04:17:10;;;;;;;13.75;6.78;;;;;;;11.86;58.58;100874.09;5081848;28;19912;-83
2022/04/16 04:19:54;;;;;;;11.98;4.38;;;;;;;11.75;58.66;100878.25;5078231;28;20051;-83
2022/04/16 04:22:39;;;;;;;20.17;7.93;;;;;;;11.90;58.17;100872.31;5085306;28;20067;-82
2022/04/16 04:25:24;;;;;;;6.68;4.70;;;;;;;11.82;58.70;100873.13;5083389;28;20673;-82
2022/04/16 04:28:08;;;;;;;12.95;6.10;;;;;;;11.97;57.59;100875.38;5079276;28;20071;-83
2022/04/16 04:30:53;;;;;;;19.25;4.70;;;;;;;11.90;57.71;100869.59;5080347;28;20051;-82
2022/04/16 04:33:38;;;;;;;18.80;5.85;;;;;;;12.07;57.38;100873.44;5081527;28;20067;-82
2022/04/16 04:36:24;;;;;;;11.93;6.28;;;;;;;12.12;57.16;100882.28;5077409;28;20071;-82
2022/04/16 04:39:09;;;;;;;18.85;6.53;;;;;;;12.13;57.31;100883.88;5085218;28;20051;-83
2022/04/16 04:41:54;;;;;;;9.23;5.28;;;;;;;12.20;57.13;100886.09;5080341;28;20483;-83
2022/04/16 04:44:39;;;;;;;13.70;6.78;;;;;;;12.24;56.96;100884.34;5070221;28;20043;-82
2022/04/16 04:47:24;;;;;;;10.18;4.90;;;;;;;12.04;58.58;100890.47;5059611;28;20047;-83
2022/04/16 04:50:10;;;;;;;16.88;7.68;;;;;;;12.30;57.20;100892.03;5080366;28;20043;-83
2022/04/16 04:52:55;;;;;;;13.50;6.15;;;;;;;12.21;57.08;100895.88;5079770;28;20075;-83
2022/04/16 04:55:40;;;;;;;18.05;5.47;;;;;;;12.32;57.86;100892.53;5082849;28;20044;-83
2022/04/16 04:58:24;;;;;;;9.68;4.68;;;;;;;12.33;57.80;100896.84;5072195;28;20079;-86
2022/04/16 05:01:10;;;;;;;14.57;6.65;;;;;;;12.56;57.12;100891.19;5069282;28;20048;-82
2022/04/16 05:03:55;;;;;;;12.40;6.60;;;;;;;12.58;57.35;100889.75;5066892;28;20049;-83
2022/04/16 05:06:41;;;;;;;17.52;6.70;;;;;;;12.83;56.66;100894.34;5063912;28;20520;-82
2022/04/16 05:09:25;;;;;;;17.05;5.63;;;;;;;12.74;56.96;100890.84;5072552;28;20067;-83
2022/04/16 05:12:10;;;;;;;28.38;7.10;;;;;;;12.84;57.04;100897.88;5083723;28;20063;-83
2022/04/16 05:14:55;;;;;;;11.20;5.65;;;;;;;12.84;57.47;100895.16;5064094;28;20048;-83
2022/04/16 05:17:40;;;;;;;11.10;5.85;;;;;;;12.61;58.15;100900.00;5059377;28;20055;-83
2022/04/16 05:20:25;;;;;;;12.57;6.28;;;;;;;12.66;58.66;100902.56;5068457;28;20051;-83
2022/04/16 05:23:10;;;;;;;15.50;7.50;;;;;;;12.95;58.05;100892.88;5067968;28;20135;-84
2022/04/16 05:25:55;;;;;;;11.98;6.95;;;;;;;13.08;57.30;100897.31;5082483;28;20088;-81
2022/04/16 05:28:41;;;;;;;12.38;7.47;;;;;;;13.46;56.34;100897.34;5089819;28;20042;-79
2022/04/16 05:31:29;;;;;;;17.98;7.68;;;;;;;13.33;56.79;100899.16;5084167;28;20051;-81
2022/04/16 05:34:20;;;;;;;21.67;7.40;;;;;;;13.72;55.80;100895.22;5084899;28;20030;-81
2022/04/16 05:37:05;;;;;;;25.85;8.35;;;;;;;13.82;56.01;100896.75;5085162;28;20027;-82
2022/04/16 05:39:49;;;;;;;15.43;6.05;;;;;;;14.28;54.45;100890.28;5091216;28;20047;-81
2022/04/16 05:42:39;;;;;;;13.40;5.68;;;;;;;14.46;54.14;100895.31;5083938;28;20050;-81
2022/04/16 05:45:24;;;;;;;16.02;8.13;;;;;;;14.80;53.10;100893.34;5097510;28;20051;-82
2022/04/16 05:48:09;;;;;;;13.02;7.93;;;;;;;15.08;52.40;100894.31;5089470;28;20053;-81
2022/04/16 05:50:55;;;;;;;;;;;;;;;15.48;51.64;100888.97;5082942;28;20051;-81
2022/04/16 05:53:40;;;;;;;15.50;8.18;;;;;;;15.75;51.07;100888.25;5096766;28;19909;-81
2022/04/16 05:56:25;;;;;;;;;;;;;;;16.44;49.11;100900.06;5081419;28;20052;-81
2022/04/16 05:59:10;;;;;;;27.17;9.73;;;;;;;16.52;48.82;100899.09;5086295;28;19929;-81
2022/04/16 06:01:56;;;;;;;20.13;8.98;;;;;;;16.81;48.54;100893.22;5085915;28;20031;-80
2022/04/16 06:04:41;;;;;;;21.60;8.68;;;;;;;16.87;48.65;100891.81;5092922;28;20039;-82
2022/04/16 06:07:26;;;;;;;17.08;9.27;;;;;;;17.59;46.67;100888.84;5090109;28;20048;-82
2022/04/16 06:10:11;;;;;;;14.18;8.93;;;;;;;18.24;45.24;100895.41;5095452;28;20503;-81
2022/04/16 06:12:56;;;;;;;21.17;9.73;;;;;;;18.44;44.60;100897.00;5091573;28;20045;-81
2022/04/16 06:15:41;;;;;;;;;;;;;;;19.10;43.72;100901.38;5088641;28;20519;-80
2022/04/16 06:18:26;;;;;;;22.02;11.35;;;;;;;21.35;38.19;100904.66;5088790;28;19916;-81
2022/04/16 06:21:11;;;;;;;;;;;;;;;23.21;33.84;100908.63;5085880;28;20032;-81
2022/04/16 06:23:57;;;;;;;23.90;11.00;;;;;;;24.45;31.89;100916.72;5089997;28;19912;-80
2022/04/16 06:26:45;;;;;;;22.27;9.63;;;;;;;25.60;29.77;100920.34;5096130;28;20273;-80
2022/04/16 06:29:29;;;;;;;16.75;8.38;;;;;;;26.03;29.13;100921.47;5093941;28;20051;-80
2022/04/16 06:32:14;;;;;;;26.73;9.48;;;;;;;27.41;26.38;100918.75;5096619;28;20050;-81
2022/04/16 06:35:01;;;;;;;28.30;8.35;;;;;;;28.09;25.74;100916.28;5095751;28;20039;-81
2022/04/16 06:37:46;;;;;;;19.85;8.10;;;;;;;29.29;22.38;100922.03;5090842;28;20051;-81
2022/04/16 06:40:31;;;;;;;18.90;7.28;;;;;;;29.22;21.59;100915.81;5094388;28;20047;-79
2022/04/16 06:43:16;;;;;;;18.48;8.30;;;;;;;29.93;22.14;100920.41;5088482;28;20039;-81
2022/04/16 06:46:01;;;;;;;22.48;7.97;;;;;;;30.90;21.12;100925.53;5091682;28;20047;-81
2022/04/16 06:48:46;;;;;;;13.40;8.07;;;;;;;31.48;20.25;100913.22;5094777;28;20055;-81
2022/04/16 06:51:31;;;;;;;20.98;7.57;;;;;;;32.51;19.59;100915.94;5087137;28;20055;-82
2022/04/16 06:54:15;;;;;;;18.77;6.65;;;;;;;32.34;18.30;100917.38;5089445;28;20035;-81
2022/04/16 06:57:00;;;;;;;19.58;6.07;;;;;;;31.50;19.53;100917.16;5085224;28;20047;-81
2022/04/16 06:59:45;;;;;;;14.10;6.78;;;;;;;31.68;19.46;100928.59;5089471;28;20055;-82
2022/04/16 07:02:29;;;;;;;;;;;;;;;30.57;19.62;100935.41;5092011;28;20040;-81
2022/04/16 07:05:14;;;;;;;13.23;5.95;;;;;;;31.24;19.74;100935.34;5086162;28;19916;-81
2022/04/16 07:07:59;;;;;;;15.23;6.18;;;;;;;32.30;18.50;100928.00;5088590;28;20052;-81
2022/04/16 07:10:44;;;;;;;82.85;8.70;;;;;;;33.27;18.14;100943.53;5092786;28;20039;-80
2022/04/16 07:13:29;;;;;;;10.68;5.05;;;;;;;34.20;16.93;100946.75;5082461;28;20060;-82
2022/04/16 07:16:14;;;;;;;14.48;5.82;;;;;;;34.49;16.58;100949.81;5090163;28;20023;-81
2022/04/16 07:18:59;;;;;;;11.07;6.07;;;;;;;34.14;16.13;100955.03;5096322;28;20051;-82
2022/04/16 07:21:43;;;;;;;15.30;6.20;;;;;;;33.93;16.45;100953.19;5087756;28;20047;-81
2022/04/16 07:24:28;;;;;;;11.50;5.28;;;;;;;32.48;18.12;100950.63;5094300;28;20059;-81
2022/04/16 07:27:13;;;;;;;11.13;5.80;;;;;;;33.39;17.32;100949.00;5091200;28;20043;-81
2022/04/16 07:29:59;;;;;;;21.25;6.32;;;;;;;30.69;20.08;100957.09;5091196;28;20605;-83
2022/04/16 07:32:43;;;;;;;14.15;6.55;;;;;;;27.17;24.18;100943.88;5077162;28;20048;-83
2022/04/16 07:35:29;;;;;;;10.75;6.75;;;;;;;25.16;27.75;100946.94;5066940;28;20047;-84
2022/04/16 07:38:13;;;;;;;11.65;6.00;;;;;;;24.33;29.38;100944.97;5080338;28;20412;-83
2022/04/16 07:40:58;;;;;;;10.70;5.75;;;;;;;23.42;31.50;100941.13;5078918;28;20050;-83
2022/04/16 07:43:43;;;;;;;16.02;6.22;;;;;;;22.98;32.30;100931.22;5076029;28;20051;-82
2022/04/16 07:46:36;;;;;;;14.32;6.20;;;;;;;22.24;34.23;100932.94;5079657;28;20059;-82
2022/04/16 07:49:20;;;;;;;31.25;6.47;;;;;;;21.88;35.54;100940.25;5073329;28;20044;-84
2022/04/16 07:52:05;;;;;;;;;;;;;;;21.75;36.63;100929.47;5092091;22;20068;-82
2022/04/16 07:54:53;;;;;;;16.63;6.38;;;;;;;21.51;36.84;100929.31;5054237;28;19917;-82
2022/04/16 07:57:37;;;;;;;11.77;5.97;;;;;;;21.58;37.63;100923.84;5055162;28;20052;-82
2022/04/16 08:01:19;;;;;;;9.35;5.60;;;;;;;21.60;37.70;100938.06;5057544;28;20524;-82
2022/04/16 08:04:04;;;;;;;11.68;4.97;;;;;;;21.58;37.30;100934.91;5040171;28;20036;-81
2022/04/16 08:06:50;;;;;;;14.68;5.57;;;;;;;21.32;38.29;100933.91;5036572;28;20052;-80
2022/04/16 08:09:35;;;;;;;12.43;5.18;;;;;;;21.26;38.36;100929.91;5039473;28;20056;-83
2022/04/16 08:12:20;;;;;;;7.05;4.18;;;;;;;21.48;37.61;100925.34;5035072;28;20521;-83
2022/04/16 08:15:06;;;;;;;10.95;4.35;;;;;;;21.63;37.51;100932.56;5027085;28;20048;-82
2022/04/16 08:17:51;;;;;;;40.42;6.15;;;;;;;21.74;37.22;100940.91;5033494;28;20052;-81
2022/04/16 08:20:36;;;;;;;8.93;4.18;;;;;;;21.68;37.02;100942.47;5031737;28;20044;-81
2022/04/16 08:23:20;;;;;;;17.90;4.43;;;;;;;21.41;37.68;100949.38;5027398;28;20528;-81
2022/04/16 08:26:05;;;;;;;6.70;4.95;;;;;;;21.38;38.07;100944.63;5029527;28;20064;-80
2022/04/16 08:28:50;;;;;;;8.10;3.33;;;;;;;21.30;37.97;100941.78;5024768;28;20052;-80
2022/04/16 08:31:34;;;;;;;;;;;;;;;21.45;38.29;100953.75;5036706;28;20047;-81
2022/04/16 08:34:19;;;;;;;10.77;3.08;;;;;;;21.47;38.27;100950.63;5032990;28;19913;-79
2022/04/16 08:37:04;;;;;;;17.30;3.67;;;;;;;21.49;37.32;100948.25;5032703;28;20045;-79
2022/04/16 08:39:49;;;;;;;15.18;2.80;;;;;;;21.42;37.25;100950.97;5036381;28;20048;-78
2022/04/16 08:42:35;;;;;;;14.52;2.70;;;;;;;21.33;36.73;100941.00;5030837;28;20429;-78
2022/04/16 08:45:19;;;;;;;4.70;2.00;;;;;;;21.41;36.55;100952.16;5032059;28;20049;-79
2022/04/16 08:48:04;;;;;;;9.52;2.40;;;;;;;21.55;36.44;100946.72;5036685;28;20571;-79
2022/04/16 08:50:49;;;;;;;14.15;2.97;;;;;;;21.44;36.69;100951.38;5034595;28;20053;-78
2022/04/16 08:53:35;;;;;;;9.63;2.45;;;;;;;21.60;36.19;100954.66;5032818;28;20049;-79
2022/04/16 08:56:19;;;;;;;6.55;2.67;;;;;;;21.70;35.76;100965.03;5032484;28;20044;-79
2022/04/16 08:59:04;;;;;;;12.80;2.53;;;;;;;21.84;35.68;100953.28;5031900;28;20044;-79
2022/04/16 09:01:48;;;;;;;3.70;2.20;;;;;;;22.04;35.40;100952.66;5035213;28;20043;-79
2022/04/16 09:04:33;;;;;;;3.85;2.10;;;;;;;22.18;34.74;100947.16;5030922;28;20049;-79
2022/04/16 09:07:20;;;;;;;7.43;2.72;;;;;;;22.39;34.17;100942.91;5022602;28;20048;-80
2022/04/16 09:10:07;;;;;;;12.15;3.28;;;;;;;21.87;34.99;100939.44;5031202;28;20072;-81
2022/04/16 09:12:53;;;;;;;7.55;3.10;;;;;;;22.30;34.49;100942.47;5025609;28;20437;-81
2022/04/16 09:15:38;;;;;;;10.30;2.30;;;;;;;22.20;33.92;100927.38;5026151;28;20045;-81
2022/04/16 09:18:23;;;;;;;8.50;2.42;;;;;;;21.68;35.47;100931.41;5013781;28;20497;-79
2022/04/16 09:21:12;;;;;;;4.57;2.13;;;;;;;21.74;35.26;100938.16;5018250;28;20049;-80
2022/04/16 09:23:59;;;;;;;5.47;1.95;;;;;;;21.43;36.48;100947.03;5019112;28;20068;-78
2022/04/16 09:26:44;;;;;;;7.85;2.13;;;;;;;22.08;34.20;100936.84;5024848;28;20057;-81
2022/04/16 09:29:29;;;;;;;10.35;2.40;;;;;;;22.53;34.38;100932.66;5031541;28;20048;-80
2022/04/16 09:32:24;;;;;;;11.60;3.03;;;;;;;22.45;34.31;100933.03;5024133;28;20060;-80
2022/04/16 09:35:24;;;;;;;5.80;2.58;;;;;;;21.82;35.36;100927.94;5032902;28;20148;-80
2022/04/16 09:38:14;;;;;;;7.63;3.50;;;;;;;21.44;36.60;100916.19;5033324;28;20049;-80
2022/04/16 09:41:05;;;;;;;5.30;1.83;;;;;;;21.36;36.69;100920.09;5032785;28;20057;-80
2022/04/16 09:43:50;;;;;;;76.75;5.80;;;;;;;21.31;36.94;100921.25;5032316;28;20095;-81
2022/04/16 09:46:35;;;;;;;10.48;2.50;;;;;;;21.42;36.73;100909.47;5032657;28;20053;-80
2022/04/16 09:49:21;;;;;;;15.55;2.90;;;;;;;21.42;36.52;100903.94;5020511;28;20044;-80
2022/04/16 09:52:06;;;;;;;4.85;2.20;;;;;;;21.81;35.52;100898.66;5029291;28;20045;-78
2022/04/16 09:54:54;;;;;;;121.85;9.82;;;;;;;22.08;34.04;100913.88;5027594;28;20060;-81
2022/04/16 09:57:40;;;;;;;8.63;2.58;;;;;;;22.34;34.50;100918.34;5020879;28;20042;-79
2022/04/16 10:00:26;;;;;;;10.20;2.78;;;;;;;22.44;34.70;100915.63;5038801;28;20282;-79
2022/04/16 10:03:11;;;;;;;9.95;3.10;;;;;;;22.37;35.00;100921.13;5036683;28;20049;-81
2022/04/16 10:05:57;;;;;;;13.43;3.80;;;;;;;22.57;35.18;100918.81;5035669;28;20057;-80
2022/04/16 10:08:42;;;;;;;7.90;2.85;;;;;;;22.28;35.27;100911.59;5035399;28;20049;-80
2022/04/16 10:12:59;;;;;;;9.50;3.28;;;;;;;22.37;36.07;100910.03;5029075;28;20056;-82
2022/04/16 10:15:08;;;;;;;6.15;3.78;;;;;;;22.60;35.52;100926.34;5038971;28;20073;-80
2022/04/16 10:17:53;;;;;;;5.65;2.60;;;;;;;22.39;35.39;100918.75;5050170;28;20069;-79
2022/04/16 10:20:57;;;;;;;25.50;3.72;;;;;;;22.18;35.66;100916.69;5041895;28;20052;-80
2022/04/16 10:23:42;;;;;;;4.40;2.55;;;;;;;22.08;35.69;100917.44;5024552;28;20049;-80
2022/04/16 10:26:39;;;;;;;19.50;2.75;;;;;;;21.95;35.98;100907.06;5032428;28;20052;-81
2022/04/16 10:29:24;;;;;;;9.23;2.35;;;;;;;22.41;35.34;100910.03;5033240;28;20044;-81
2022/04/16 10:32:16;;;;;;;7.18;2.15;;;;;;;22.31;34.65;100899.72;5034965;28;20053;-80
2022/04/16 10:35:03;;;;;;;12.43;2.13;;;;;;;22.39;34.93;100909.66;5024523;28;20057;-80
2022/04/16 10:37:54;;;;;;;14.30;2.25;;;;;;;21.97;34.84;100902.75;5025920;28;20040;-80
2022/04/16 10:40:41;;;;;;;9.93;2.05;;;;;;;21.66;36.34;100903.31;5045999;28;20048;-80
2022/04/16 10:43:33;;;;;;;4.13;2.00;;;;;;;21.93;35.57;100907.44;5056300;28;20056;-80
2022/04/16 10:46:18;;;;;;;13.10;2.13;;;;;;;22.22;35.59;100897.31;5053705;28;20516;-79
2022/04/16 10:49:07;;;;;;;9.20;2.15;;;;;;;22.03;35.80;100903.97;5032973;28;20060;-80
2022/04/16 10:51:58;;;;;;;7.05;1.95;;;;;;;22.37;35.52;100900.91;5023621;28;20056;-80
2022/04/16 10:54:42;;;;;;;5.88;1.77;;;;;;;22.33;35.94;100895.38;5033024;28;20044;-79
2022/04/16 10:57:28;;;;;;;7.97;1.98;;;;;;;22.15;36.14;100903.59;5030916;28;20049;-81
2022/04/16 11:00:13;;;;;;;23.30;2.60;;;;;;;22.34;35.61;100901.72;5035563;28;20045;-81
2022/04/16 11:03:10;;;;;;;9.82;1.70;;;;;;;22.63;35.20;100899.81;5034564;28;20048;-79
2022/04/16 11:06:04;;;;;;;6.65;1.58;;;;;;;22.54;35.34;100894.66;5027011;28;20045;-79
2022/04/16 11:08:49;;;;;;;7.25;2.00;;;;;;;22.59;33.79;100892.28;5035161;28;20052;-79
2022/04/16 11:11:38;;;;;;;11.15;2.05;;;;;;;22.79;33.64;100891.97;5036510;28;20516;-81
2022/04/16 11:14:25;;;;;;;3.50;2.38;;;;;;;22.78;33.61;100882.06;5034903;28;20071;-79
2022/04/16 11:17:13;;;;;;;3.25;1.55;;;;;;;22.69;34.33;100874.09;5035070;28;20044;-80
2022/04/16 11:20:04;;;;;;;7.78;2.58;;;;;;;22.54;34.51;100876.06;5018868;28;20068;-81
2022/04/16 11:22:49;;;;;;;46.75;3.08;;;;;;;22.69;34.08;100864.97;5034384;28;20531;-82
2022/04/16 11:34:14;;;;;;;2.88;1.67;;;;;;;22.95;33.20;100870.19;5038285;28;20128;-80
2022/04/16 11:34:53;;;;;;;3.90;1.75;;;;;;;23.18;32.04;100867.00;5031583;28;20056;-79
2022/04/16 11:37:38;;;;;;;11.55;2.08;;;;;;;23.20;32.25;100870.19;5026597;28;20060;-81
2022/04/16 11:40:23;;;;;;;5.45;1.92;;;;;;;23.29;32.54;100865.03;5051569;28;20053;-82
2022/04/16 11:43:12;;;;;;;6.75;2.03;;;;;;;23.32;32.46;100862.25;5033239;28;20052;-81
2022/04/16 11:46:00;;;;;;;8.23;2.40;;;;;;;23.36;31.24;100859.47;5038941;28;20056;-80
2022/04/16 11:48:47;;;;;;;17.25;1.98;;;;;;;23.42;31.04;100853.09;5019707;28;20045;-82
2022/04/16 11:51:36;;;;;;;9.32;2.08;;;;;;;23.44;31.11;100849.94;5050098;28;20045;-84
2022/04/16 11:54:28;;;;;;;23.00;2.47;;;;;;;23.55;30.04;100847.97;5050375;28;20053;-82
2022/04/16 11:57:21;;;;;;;9.68;1.60;;;;;;;23.54;29.85;100843.59;5025729;28;20045;-81
2022/04/16 12:00:08;;;;;;;3.83;1.55;;;;;;;23.64;30.41;100836.44;5036202;28;20072;-83
2022/04/16 12:02:57;;;;;;;7.10;1.33;;;;;;;23.63;30.02;100835.66;5032772;28;20064;-83
2022/04/16 12:05:42;;;;;;;7.18;1.50;;;;;;;23.84;29.86;100841.13;5034373;28;20069;-82
2022/04/16 12:08:30;;;;;;;6.05;1.42;;;;;;;23.81;29.82;100841.94;5040304;28;20048;-83
2022/04/16 12:11:19;;;;;;;2.42;1.30;;;;;;;23.43;30.05;100848.34;5033698;28;20052;-82
2022/04/16 12:14:04;;;;;;;2.55;1.20;;;;;;;23.33;29.91;100832.50;5044115;28;20064;-82
2022/04/16 12:16:57;;;;;;;5.03;1.42;;;;;;;23.31;29.92;100838.47;5035225;28;20414;-83
2022/04/16 12:19:42;;;;;;;3.17;1.60;;;;;;;23.53;30.77;100830.91;5050863;28;20413;-80
2022/04/16 12:22:27;;;;;;;10.55;1.88;;;;;;;23.77;30.72;100835.59;5049393;28;20049;-84
2022/04/16 12:25:15;;;;;;;8.60;1.75;;;;;;;23.84;30.92;100832.00;5047867;28;20048;-83
2022/04/16 12:28:00;;;;;;;5.20;1.65;;;;;;;23.83;30.23;100827.63;5051743;28;20053;-81
2022/04/16 12:30:50;;;;;;;8.27;1.85;;;;;;;23.88;29.92;100825.25;5035905;28;20053;-81
2022/04/16 12:33:35;;;;;;;6.15;1.95;;;;;;;23.96;30.83;100819.66;5033406;28;20052;-82
2022/04/16 12:36:19;;;;;;;32.83;3.35;;;;;;;23.81;30.73;100825.28;5037276;28;20048;-84
2022/04/16 12:39:04;;;;;;;3.97;1.70;;;;;;;23.52;31.30;100812.66;5033734;28;20056;-81
2022/04/16 12:41:50;;;;;;;5.03;2.60;;;;;;;23.35;31.64;100808.72;5033545;28;20053;-81
2022/04/16 12:44:35;;;;;;;5.07;2.03;;;;;;;23.17;33.03;100809.94;5036850;28;20117;-82
2022/04/16 12:47:19;;;;;;;6.05;1.48;;;;;;;22.97;32.75;100804.81;5035076;28;20052;-80
2022/04/16 12:50:04;;;;;;;7.55;1.50;;;;;;;22.83;32.56;100790.94;5027800;28;20048;-80
2022/04/16 12:52:49;;;;;;;2.42;1.40;;;;;;;22.75;32.52;100783.81;5026146;28;20052;-83
2022/04/16 12:55:34;;;;;;;10.20;2.35;;;;;;;22.74;34.02;100793.31;5029613;28;20071;-82
2022/04/16 12:58:19;;;;;;;4.95;1.90;;;;;;;22.61;34.64;100808.72;5021213;28;20045;-82
2022/04/16 13:01:03;;;;;;;10.77;2.13;;;;;;;22.50;33.98;100819.78;5030926;28;20057;-82
2022/04/16 13:03:48;;;;;;;5.82;2.70;;;;;;;22.48;34.27;100826.94;5042427;28;20041;-81
2022/04/16 13:06:33;;;;;;;4.47;1.90;;;;;;;22.31;33.82;100824.91;5027017;28;20056;-81
2022/04/16 13:09:19;;;;;;;5.10;2.28;;;;;;;22.12;34.63;100826.84;5025524;28;20464;-81
2022/04/16 13:12:04;;;;;;;4.55;2.03;;;;;;;21.87;36.41;100817.59;5021460;28;20053;-81
2022/04/16 13:14:49;;;;;;;4.07;1.75;;;;;;;21.65;37.07;100802.88;5027639;28;20053;-80